Monmouth, Kansas
Current Conditions -  °F | °C
As of 3:55 PM on Tuesday 25 Nov 2014 (Local Time) from KPTS Reporting Station
Clear Clear  
Wind Chill: 41°   Ceiling: Unl
Heat Index: 44°   Visibility: 10mi
Dew Point: 23°   Wind: 7mph
Humidity: 43%   Direction: 230°SW
Pressure: 30.14"   Gusts: NA
Location:  37.3318°N, 95.0213°W
Report Text: KPTS 252155Z AUTO 23006KT 10SM CLR 07/M05 A3014 RMK AO2 T00691050
Loading
Personal Weather Stations






























Interactive Weather Map New forecast layout! Learn more

10-Day Weather Forecast

Advertisements
Track Severe Weather on mobile